sensor_id;sensor_type;location;lat;lon;timestamp;temperature;humidity
33023;DHT22;19390;51.460;5.710;2022-11-11T00:01:41;8.40;99.90
33023;DHT22;19390;51.460;5.710;2022-11-11T00:04:06;8.50;99.90
33023;DHT22;19390;51.460;5.710;2022-11-11T00:06:32;8.50;99.90
33023;DHT22;19390;51.460;5.710;2022-11-11T00:08:58;8.50;99.90
33023;DHT22;19390;51.460;5.710;2022-11-11T00:11:24;8.50;99.90
33023;DHT22;19390;51.460;5.710;2022-11-11T00:13:49;8.50;99.90
33023;DHT22;19390;51.460;5.710;2022-11-11T00:16:19;8.50;99.90
33023;DHT22;19390;51.460;5.710;2022-11-11T00:18:45;8.40;99.90
33023;DHT22;19390;51.460;5.710;2022-11-11T00:21:30;8.50;99.90
33023;DHT22;19390;51.460;5.710;2022-11-11T00:24:02;8.50;99.90
33023;DHT22;19390;51.460;5.710;2022-11-11T00:26:46;8.40;99.90
33023;DHT22;19390;51.460;5.710;2022-11-11T00:29:12;8.40;99.90
33023;DHT22;19390;51.460;5.710;2022-11-11T00:31:38;8.30;99.90
33023;DHT22;19390;51.460;5.710;2022-11-11T00:34:23;8.30;99.90
33023;DHT22;19390;51.460;5.710;2022-11-11T00:36:49;8.40;99.90
33023;DHT22;19390;51.460;5.710;2022-11-11T00:39:15;8.50;99.90
33023;DHT22;19390;51.460;5.710;2022-11-11T00:41:40;8.50;99.90
33023;DHT22;19390;51.460;5.710;2022-11-11T00:44:06;8.50;99.90
33023;DHT22;19390;51.460;5.710;2022-11-11T00:46:32;8.70;99.90
33023;DHT22;19390;51.460;5.710;2022-11-11T00:49:16;8.70;99.90
33023;DHT22;19390;51.460;5.710;2022-11-11T00:52:00;8.80;99.90
33023;DHT22;19390;51.460;5.710;2022-11-11T00:54:26;8.80;99.90
33023;DHT22;19390;51.460;5.710;2022-11-11T00:56:51;8.80;99.90
33023;DHT22;19390;51.460;5.710;2022-11-11T00:59:17;8.90;99.90
33023;DHT22;19390;51.460;5.710;2022-11-11T01:01:43;8.90;99.90
33023;DHT22;19390;51.460;5.710;2022-11-11T01:04:08;8.90;99.90
33023;DHT22;19390;51.460;5.710;2022-11-11T01:06:34;8.90;99.90
33023;DHT22;19390;51.460;5.710;2022-11-11T01:09:04;8.90;99.90
33023;DHT22;19390;51.460;5.710;2022-11-11T01:11:30;8.90;99.90
33023;DHT22;19390;51.460;5.710;2022-11-11T01:13:55;8.90;99.90
33023;DHT22;19390;51.460;5.710;2022-11-11T01:16:24;8.90;99.90
33023;DHT22;19390;51.460;5.710;2022-11-11T01:18:51;9.00;99.90
33023;DHT22;19390;51.460;5.710;2022-11-11T01:21:22;9.00;99.90
33023;DHT22;19390;51.460;5.710;2022-11-11T01:23:48;9.00;99.90
33023;DHT22;19390;51.460;5.710;2022-11-11T01:26:18;9.00;99.90
33023;DHT22;19390;51.460;5.710;2022-11-11T01:28:47;9.00;99.90
33023;DHT22;19390;51.460;5.710;2022-11-11T01:31:14;9.00;99.90
33023;DHT22;19390;51.460;5.710;2022-11-11T01:33:40;9.00;99.90
33023;DHT22;19390;51.460;5.710;2022-11-11T01:36:11;9.00;99.90
33023;DHT22;19390;51.460;5.710;2022-11-11T01:38:38;9.10;99.90
33023;DHT22;19390;51.460;5.710;2022-11-11T01:41:05;9.10;99.90
33023;DHT22;19390;51.460;5.710;2022-11-11T01:43:50;9.10;99.90
33023;DHT22;19390;51.460;5.710;2022-11-11T01:46:23;9.10;99.90
33023;DHT22;19390;51.460;5.710;2022-11-11T01:48:54;9.10;99.90
33023;DHT22;19390;51.460;5.710;2022-11-11T01:51:47;9.10;99.90
33023;DHT22;19390;51.460;5.710;2022-11-11T01:54:26;9.10;99.90
33023;DHT22;19390;51.460;5.710;2022-11-11T01:57:01;9.10;99.90
33023;DHT22;19390;51.460;5.710;2022-11-11T01:59:29;9.10;99.90
33023;DHT22;19390;51.460;5.710;2022-11-11T02:01:57;9.10;99.90
33023;DHT22;19390;51.460;5.710;2022-11-11T02:04:23;9.10;99.90
33023;DHT22;19390;51.460;5.710;2022-11-11T02:07:08;9.10;99.90
33023;DHT22;19390;51.460;5.710;2022-11-11T02:09:36;9.10;99.90
33023;DHT22;19390;51.460;5.710;2022-11-11T02:12:05;9.10;99.90
33023;DHT22;19390;51.460;5.710;2022-11-11T02:14:53;9.10;99.90
33023;DHT22;19390;51.460;5.710;2022-11-11T02:17:19;9.10;99.90
33023;DHT22;19390;51.460;5.710;2022-11-11T02:19:58;9.10;99.90
33023;DHT22;19390;51.460;5.710;2022-11-11T02:25:03;9.10;99.90
33023;DHT22;19390;51.460;5.710;2022-11-11T02:27:30;9.10;99.90
33023;DHT22;19390;51.460;5.710;2022-11-11T02:29:57;9.10;99.90
33023;DHT22;19390;51.460;5.710;2022-11-11T02:32:24;9.10;99.90
33023;DHT22;19390;51.460;5.710;2022-11-11T02:34:50;9.10;99.90
33023;DHT22;19390;51.460;5.710;2022-11-11T02:37:20;9.10;99.90
33023;DHT22;19390;51.460;5.710;2022-11-11T02:39:47;9.10;99.90
33023;DHT22;19390;51.460;5.710;2022-11-11T02:42:15;9.10;99.90
33023;DHT22;19390;51.460;5.710;2022-11-11T02:44:41;9.10;99.90
33023;DHT22;19390;51.460;5.710;2022-11-11T02:47:06;9.10;99.90
33023;DHT22;19390;51.460;5.710;2022-11-11T02:49:32;9.00;99.90
33023;DHT22;19390;51.460;5.710;2022-11-11T02:51:58;9.00;99.90
33023;DHT22;19390;51.460;5.710;2022-11-11T02:54:23;9.00;99.90
33023;DHT22;19390;51.460;5.710;2022-11-11T02:56:49;9.00;99.90
33023;DHT22;19390;51.460;5.710;2022-11-11T02:59:37;8.90;99.90
33023;DHT22;19390;51.460;5.710;2022-11-11T03:02:03;8.90;99.90
33023;DHT22;19390;51.460;5.710;2022-11-11T03:04:29;8.90;99.90
33023;DHT22;19390;51.460;5.710;2022-11-11T03:06:55;8.80;99.90
33023;DHT22;19390;51.460;5.710;2022-11-11T03:09:21;8.80;99.90
33023;DHT22;19390;51.460;5.710;2022-11-11T03:11:46;8.70;99.90
33023;DHT22;19390;51.460;5.710;2022-11-11T03:14:12;8.70;99.90
33023;DHT22;19390;51.460;5.710;2022-11-11T03:16:38;8.70;99.90
33023;DHT22;19390;51.460;5.710;2022-11-11T03:19:22;8.70;99.90
33023;DHT22;19390;51.460;5.710;2022-11-11T03:21:47;8.70;99.90
33023;DHT22;19390;51.460;5.710;2022-11-11T03:24:13;8.60;99.90
33023;DHT22;19390;51.460;5.710;2022-11-11T03:26:39;8.60;99.90
33023;DHT22;19390;51.460;5.710;2022-11-11T03:29:04;8.60;99.90
33023;DHT22;19390;51.460;5.710;2022-11-11T03:31:30;8.60;99.90
33023;DHT22;19390;51.460;5.710;2022-11-11T03:33:56;8.50;99.90
33023;DHT22;19390;51.460;5.710;2022-11-11T03:36:43;8.50;99.90
33023;DHT22;19390;51.460;5.710;2022-11-11T03:39:27;8.40;99.90
33023;DHT22;19390;51.460;5.710;2022-11-11T03:41:55;8.20;99.90
33023;DHT22;19390;51.460;5.710;2022-11-11T03:44:20;8.10;99.90
33023;DHT22;19390;51.460;5.710;2022-11-11T03:46:46;8.10;99.90
33023;DHT22;19390;51.460;5.710;2022-11-11T03:49:12;8.00;99.90
33023;DHT22;19390;51.460;5.710;2022-11-11T03:51:37;7.80;99.90
33023;DHT22;19390;51.460;5.710;2022-11-11T03:54:03;7.70;99.90
33023;DHT22;19390;51.460;5.710;2022-11-11T03:56:29;7.70;99.90
33023;DHT22;19390;51.460;5.710;2022-11-11T03:58:54;7.60;99.90
33023;DHT22;19390;51.460;5.710;2022-11-11T04:01:20;7.50;99.90
33023;DHT22;19390;51.460;5.710;2022-11-11T04:04:04;7.50;99.90
33023;DHT22;19390;51.460;5.710;2022-11-11T04:06:48;7.40;99.90
33023;DHT22;19390;51.460;5.710;2022-11-11T04:09:32;7.40;99.90
33023;DHT22;19390;51.460;5.710;2022-11-11T04:12:16;7.40;99.90
33023;DHT22;19390;51.460;5.710;2022-11-11T04:14:42;7.30;99.90
33023;DHT22;19390;51.460;5.710;2022-11-11T04:17:26;7.20;99.90
33023;DHT22;19390;51.460;5.710;2022-11-11T04:19:52;7.20;99.90
33023;DHT22;19390;51.460;5.710;2022-11-11T04:22:41;7.10;99.90
33023;DHT22;19390;51.460;5.710;2022-11-11T04:25:07;7.20;99.90
33023;DHT22;19390;51.460;5.710;2022-11-11T04:27:56;7.10;99.90
33023;DHT22;19390;51.460;5.710;2022-11-11T04:30:41;7.10;99.90
33023;DHT22;19390;51.460;5.710;2022-11-11T04:33:07;7.00;99.90
33023;DHT22;19390;51.460;5.710;2022-11-11T04:35:33;7.00;99.90
33023;DHT22;19390;51.460;5.710;2022-11-11T04:37:58;7.00;99.90
33023;DHT22;19390;51.460;5.710;2022-11-11T04:40:43;7.00;99.90
33023;DHT22;19390;51.460;5.710;2022-11-11T04:43:31;6.90;99.90
33023;DHT22;19390;51.460;5.710;2022-11-11T04:46:17;6.90;99.90
33023;DHT22;19390;51.460;5.710;2022-11-11T04:48:42;6.90;99.90
33023;DHT22;19390;51.460;5.710;2022-11-11T04:51:08;6.90;99.90
33023;DHT22;19390;51.460;5.710;2022-11-11T04:53:33;6.90;99.90
33023;DHT22;19390;51.460;5.710;2022-11-11T04:55:59;6.90;99.90
33023;DHT22;19390;51.460;5.710;2022-11-11T04:58:43;6.80;99.90
33023;DHT22;19390;51.460;5.710;2022-11-11T05:01:11;6.80;99.90
33023;DHT22;19390;51.460;5.710;2022-11-11T05:03:56;6.80;99.90
33023;DHT22;19390;51.460;5.710;2022-11-11T05:06:22;6.80;99.90
33023;DHT22;19390;51.460;5.710;2022-11-11T05:09:06;6.80;99.90
33023;DHT22;19390;51.460;5.710;2022-11-11T05:11:33;6.60;99.90
33023;DHT22;19390;51.460;5.710;2022-11-11T05:14:05;6.70;99.90
33023;DHT22;19390;51.460;5.710;2022-11-11T05:16:51;6.60;99.90
33023;DHT22;19390;51.460;5.710;2022-11-11T05:19:36;6.70;99.90
33023;DHT22;19390;51.460;5.710;2022-11-11T05:22:32;6.80;99.90
33023;DHT22;19390;51.460;5.710;2022-11-11T05:24:58;6.80;99.90
33023;DHT22;19390;51.460;5.710;2022-11-11T05:27:43;6.80;99.90
33023;DHT22;19390;51.460;5.710;2022-11-11T05:30:10;6.70;99.90
33023;DHT22;19390;51.460;5.710;2022-11-11T05:32:37;6.60;99.90
33023;DHT22;19390;51.460;5.710;2022-11-11T05:35:04;6.70;99.90
33023;DHT22;19390;51.460;5.710;2022-11-11T05:37:30;6.70;99.90
33023;DHT22;19390;51.460;5.710;2022-11-11T05:39:56;6.60;99.90
33023;DHT22;19390;51.460;5.710;2022-11-11T05:42:21;6.70;99.90
33023;DHT22;19390;51.460;5.710;2022-11-11T05:44:47;6.60;99.90
33023;DHT22;19390;51.460;5.710;2022-11-11T05:47:13;6.60;99.90
33023;DHT22;19390;51.460;5.710;2022-11-11T05:49:38;6.50;99.90
33023;DHT22;19390;51.460;5.710;2022-11-11T05:52:05;6.60;99.90
33023;DHT22;19390;51.460;5.710;2022-11-11T05:54:30;6.50;99.90
33023;DHT22;19390;51.460;5.710;2022-11-11T05:56:56;6.40;99.90
33023;DHT22;19390;51.460;5.710;2022-11-11T05:59:22;6.50;99.90
33023;DHT22;19390;51.460;5.710;2022-11-11T06:01:47;6.40;99.90
33023;DHT22;19390;51.460;5.710;2022-11-11T06:04:13;6.40;99.90
33023;DHT22;19390;51.460;5.710;2022-11-11T06:06:39;6.50;99.90
33023;DHT22;19390;51.460;5.710;2022-11-11T06:09:05;6.40;99.90
33023;DHT22;19390;51.460;5.710;2022-11-11T06:11:31;6.40;99.90
33023;DHT22;19390;51.460;5.710;2022-11-11T06:13:57;6.30;99.90
33023;DHT22;19390;51.460;5.710;2022-11-11T06:16:23;6.30;99.90
33023;DHT22;19390;51.460;5.710;2022-11-11T06:18:49;6.40;99.90
33023;DHT22;19390;51.460;5.710;2022-11-11T06:21:15;6.40;99.90
33023;DHT22;19390;51.460;5.710;2022-11-11T06:23:41;6.40;99.90
33023;DHT22;19390;51.460;5.710;2022-11-11T06:26:08;6.30;99.90
33023;DHT22;19390;51.460;5.710;2022-11-11T06:28:49;6.30;99.90
33023;DHT22;19390;51.460;5.710;2022-11-11T06:31:34;6.30;99.90
33023;DHT22;19390;51.460;5.710;2022-11-11T06:33:59;6.50;99.90
33023;DHT22;19390;51.460;5.710;2022-11-11T06:36:25;6.40;99.90
33023;DHT22;19390;51.460;5.710;2022-11-11T06:38:50;6.30;99.90
33023;DHT22;19390;51.460;5.710;2022-11-11T06:41:16;6.30;99.90
33023;DHT22;19390;51.460;5.710;2022-11-11T06:43:43;6.40;99.90
33023;DHT22;19390;51.460;5.710;2022-11-11T06:46:26;6.50;99.90
33023;DHT22;19390;51.460;5.710;2022-11-11T06:48:52;6.40;99.90
33023;DHT22;19390;51.460;5.710;2022-11-11T06:51:18;6.40;99.90
33023;DHT22;19390;51.460;5.710;2022-11-11T06:53:43;6.40;99.90
33023;DHT22;19390;51.460;5.710;2022-11-11T06:56:09;6.40;99.90
33023;DHT22;19390;51.460;5.710;2022-11-11T06:58:37;6.40;99.90
33023;DHT22;19390;51.460;5.710;2022-11-11T07:01:04;6.40;99.90
33023;DHT22;19390;51.460;5.710;2022-11-11T07:03:29;6.50;99.90
33023;DHT22;19390;51.460;5.710;2022-11-11T07:05:55;6.40;99.90
33023;DHT22;19390;51.460;5.710;2022-11-11T07:08:21;6.30;99.90
33023;DHT22;19390;51.460;5.710;2022-11-11T07:10:47;6.40;99.90
33023;DHT22;19390;51.460;5.710;2022-11-11T07:13:14;6.50;99.90
33023;DHT22;19390;51.460;5.710;2022-11-11T07:15:42;6.50;99.90
33023;DHT22;19390;51.460;5.710;2022-11-11T07:18:08;6.50;99.90
33023;DHT22;19390;51.460;5.710;2022-11-11T07:20:34;6.50;99.90
33023;DHT22;19390;51.460;5.710;2022-11-11T07:23:00;6.50;99.90
33023;DHT22;19390;51.460;5.710;2022-11-11T07:25:25;6.60;99.90
33023;DHT22;19390;51.460;5.710;2022-11-11T07:27:51;6.60;99.90
33023;DHT22;19390;51.460;5.710;2022-11-11T07:30:17;6.60;99.90
33023;DHT22;19390;51.460;5.710;2022-11-11T07:32:49;6.70;99.90
33023;DHT22;19390;51.460;5.710;2022-11-11T07:35:15;6.70;99.90
33023;DHT22;19390;51.460;5.710;2022-11-11T07:37:42;6.80;99.90
33023;DHT22;19390;51.460;5.710;2022-11-11T07:40:09;6.90;99.90
33023;DHT22;19390;51.460;5.710;2022-11-11T07:42:39;7.00;99.90
33023;DHT22;19390;51.460;5.710;2022-11-11T07:45:06;7.00;99.90
33023;DHT22;19390;51.460;5.710;2022-11-11T07:47:32;7.10;99.90
33023;DHT22;19390;51.460;5.710;2022-11-11T07:50:02;7.20;99.90
33023;DHT22;19390;51.460;5.710;2022-11-11T07:52:29;7.30;99.90
33023;DHT22;19390;51.460;5.710;2022-11-11T07:54:54;7.40;99.90
33023;DHT22;19390;51.460;5.710;2022-11-11T07:57:20;7.40;99.90
33023;DHT22;19390;51.460;5.710;2022-11-11T07:59:46;7.40;99.90
33023;DHT22;19390;51.460;5.710;2022-11-11T08:02:13;7.50;99.90
33023;DHT22;19390;51.460;5.710;2022-11-11T08:04:39;7.50;99.90
33023;DHT22;19390;51.460;5.710;2022-11-11T08:07:05;7.50;99.90
33023;DHT22;19390;51.460;5.710;2022-11-11T08:09:30;7.50;99.90
33023;DHT22;19390;51.460;5.710;2022-11-11T08:11:56;7.60;99.90
33023;DHT22;19390;51.460;5.710;2022-11-11T08:14:40;7.60;99.90
33023;DHT22;19390;51.460;5.710;2022-11-11T08:17:06;7.70;99.90
33023;DHT22;19390;51.460;5.710;2022-11-11T08:19:32;7.70;99.90
33023;DHT22;19390;51.460;5.710;2022-11-11T08:21:57;7.80;99.90
33023;DHT22;19390;51.460;5.710;2022-11-11T08:24:23;7.80;99.90
33023;DHT22;19390;51.460;5.710;2022-11-11T08:26:49;7.90;99.90
33023;DHT22;19390;51.460;5.710;2022-11-11T08:29:15;7.90;99.90
33023;DHT22;19390;51.460;5.710;2022-11-11T08:31:40;8.00;99.90
33023;DHT22;19390;51.460;5.710;2022-11-11T08:34:06;8.00;99.90
33023;DHT22;19390;51.460;5.710;2022-11-11T08:36:32;8.00;99.90
33023;DHT22;19390;51.460;5.710;2022-11-11T08:38:57;8.10;99.90
33023;DHT22;19390;51.460;5.710;2022-11-11T08:41:23;8.10;99.90
33023;DHT22;19390;51.460;5.710;2022-11-11T08:43:53;8.20;99.90
33023;DHT22;19390;51.460;5.710;2022-11-11T08:46:20;8.30;99.90
33023;DHT22;19390;51.460;5.710;2022-11-11T08:48:46;8.20;99.90
33023;DHT22;19390;51.460;5.710;2022-11-11T08:51:12;8.30;99.90
33023;DHT22;19390;51.460;5.710;2022-11-11T08:53:38;8.40;99.90
33023;DHT22;19390;51.460;5.710;2022-11-11T08:56:04;8.50;99.90
33023;DHT22;19390;51.460;5.710;2022-11-11T08:58:30;8.50;99.90
33023;DHT22;19390;51.460;5.710;2022-11-11T09:00:56;8.60;99.90
33023;DHT22;19390;51.460;5.710;2022-11-11T09:03:22;8.60;99.90
33023;DHT22;19390;51.460;5.710;2022-11-11T09:05:48;8.70;99.90
33023;DHT22;19390;51.460;5.710;2022-11-11T09:08:14;8.80;99.90
33023;DHT22;19390;51.460;5.710;2022-11-11T09:10:39;8.80;99.90
33023;DHT22;19390;51.460;5.710;2022-11-11T09:13:05;8.70;99.90
33023;DHT22;19390;51.460;5.710;2022-11-11T09:15:32;8.80;99.90
33023;DHT22;19390;51.460;5.710;2022-11-11T09:17:57;9.00;99.90
33023;DHT22;19390;51.460;5.710;2022-11-11T09:20:24;9.10;99.90
33023;DHT22;19390;51.460;5.710;2022-11-11T09:22:50;9.00;99.90
33023;DHT22;19390;51.460;5.710;2022-11-11T09:25:17;9.00;99.90
33023;DHT22;19390;51.460;5.710;2022-11-11T09:27:43;8.90;99.90
33023;DHT22;19390;51.460;5.710;2022-11-11T09:30:09;8.90;99.90
33023;DHT22;19390;51.460;5.710;2022-11-11T09:32:36;9.00;99.90
33023;DHT22;19390;51.460;5.710;2022-11-11T09:35:02;8.90;99.90
33023;DHT22;19390;51.460;5.710;2022-11-11T09:37:29;9.10;99.90
33023;DHT22;19390;51.460;5.710;2022-11-11T09:39:54;9.30;99.90
33023;DHT22;19390;51.460;5.710;2022-11-11T09:47:54;9.30;99.90
33023;DHT22;19390;51.460;5.710;2022-11-11T09:50:24;9.50;99.90
33023;DHT22;19390;51.460;5.710;2022-11-11T09:55:55;9.60;99.90
33023;DHT22;19390;51.460;5.710;2022-11-11T09:58:31;9.60;99.90
33023;DHT22;19390;51.460;5.710;2022-11-11T10:01:26;9.90;99.90
33023;DHT22;19390;51.460;5.710;2022-11-11T10:03:59;10.00;99.90
33023;DHT22;19390;51.460;5.710;2022-11-11T10:06:33;10.10;99.90
33023;DHT22;19390;51.460;5.710;2022-11-11T10:09:27;10.10;99.90
33023;DHT22;19390;51.460;5.710;2022-11-11T10:14:31;10.50;99.90
33023;DHT22;19390;51.460;5.710;2022-11-11T10:22:34;10.80;99.90
33023;DHT22;19390;51.460;5.710;2022-11-11T10:25:25;10.90;99.90
33023;DHT22;19390;51.460;5.710;2022-11-11T10:27:54;11.10;99.90
33023;DHT22;19390;51.460;5.710;2022-11-11T10:30:25;11.20;99.90
33023;DHT22;19390;51.460;5.710;2022-11-11T10:33:01;11.40;99.90
33023;DHT22;19390;51.460;5.710;2022-11-11T10:35:29;11.40;99.90
33023;DHT22;19390;51.460;5.710;2022-11-11T10:38:22;11.40;99.90
33023;DHT22;19390;51.460;5.710;2022-11-11T10:40:56;11.50;99.90
33023;DHT22;19390;51.460;5.710;2022-11-11T10:43:27;11.50;99.90
33023;DHT22;19390;51.460;5.710;2022-11-11T10:46:11;11.60;99.90
33023;DHT22;19390;51.460;5.710;2022-11-11T10:51:17;11.60;99.90
33023;DHT22;19390;51.460;5.710;2022-11-11T10:54:01;11.90;99.90
33023;DHT22;19390;51.460;5.710;2022-11-11T10:59:25;11.80;99.90
33023;DHT22;19390;51.460;5.710;2022-11-11T11:04:43;12.10;99.90
33023;DHT22;19390;51.460;5.710;2022-11-11T11:07:14;12.00;99.90
33023;DHT22;19390;51.460;5.710;2022-11-11T11:10:06;12.10;99.90
33023;DHT22;19390;51.460;5.710;2022-11-11T11:15:40;12.40;99.90
33023;DHT22;19390;51.460;5.710;2022-11-11T11:18:14;12.40;99.90
33023;DHT22;19390;51.460;5.710;2022-11-11T11:20:59;12.40;99.90
33023;DHT22;19390;51.460;5.710;2022-11-11T11:23:35;12.60;99.90
33023;DHT22;19390;51.460;5.710;2022-11-11T11:26:02;12.60;99.90
33023;DHT22;19390;51.460;5.710;2022-11-11T11:28:29;12.80;99.90
33023;DHT22;19390;51.460;5.710;2022-11-11T11:33:24;12.70;99.90
33023;DHT22;19390;51.460;5.710;2022-11-11T11:35:50;12.80;99.90
33023;DHT22;19390;51.460;5.710;2022-11-11T11:38:16;12.90;99.90
33023;DHT22;19390;51.460;5.710;2022-11-11T11:40:51;13.00;99.90
33023;DHT22;19390;51.460;5.710;2022-11-11T11:46:00;13.20;40.30
33023;DHT22;19390;51.460;5.710;2022-11-11T11:48:34;13.40;99.90
33023;DHT22;19390;51.460;5.710;2022-11-11T11:51:32;13.40;1.00
33023;DHT22;19390;51.460;5.710;2022-11-11T11:56:40;13.40;1.00
33023;DHT22;19390;51.460;5.710;2022-11-11T12:07:41;13.60;1.00
33023;DHT22;19390;51.460;5.710;2022-11-11T12:19:06;14.00;1.00
33023;DHT22;19390;51.460;5.710;2022-11-11T12:24:30;14.30;99.90
33023;DHT22;19390;51.460;5.710;2022-11-11T12:29:44;15.60;1.00
33023;DHT22;19390;51.460;5.710;2022-11-11T12:35:46;15.70;99.90
33023;DHT22;19390;51.460;5.710;2022-11-11T12:44:06;16.70;99.90
33023;DHT22;19390;51.460;5.710;2022-11-11T12:46:45;16.70;1.00
33023;DHT22;19390;51.460;5.710;2022-11-11T12:55:03;16.70;99.90
33023;DHT22;19390;51.460;5.710;2022-11-11T12:58:02;17.20;99.90
33023;DHT22;19390;51.460;5.710;2022-11-11T13:00:39;18.20;1.00
33023;DHT22;19390;51.460;5.710;2022-11-11T13:03:19;18.20;52.90
33023;DHT22;19390;51.460;5.710;2022-11-11T13:09:06;17.10;99.90
33023;DHT22;19390;51.460;5.710;2022-11-11T13:17:00;15.80;1.00
33023;DHT22;19390;51.460;5.710;2022-11-11T13:22:14;15.90;1.00
33023;DHT22;19390;51.460;5.710;2022-11-11T13:24:44;15.70;1.00
33023;DHT22;19390;51.460;5.710;2022-11-11T13:32:32;15.70;1.00
33023;DHT22;19390;51.460;5.710;2022-11-11T13:34:59;15.50;1.00
33023;DHT22;19390;51.460;5.710;2022-11-11T13:37:27;15.50;1.00
33023;DHT22;19390;51.460;5.710;2022-11-11T13:40:05;15.50;1.00
33023;DHT22;19390;51.460;5.710;2022-11-11T13:42:41;15.60;99.90
33023;DHT22;19390;51.460;5.710;2022-11-11T13:45:32;15.20;1.00
33023;DHT22;19390;51.460;5.710;2022-11-11T13:47:59;15.20;1.00
33023;DHT22;19390;51.460;5.710;2022-11-11T13:50:28;15.10;72.40
33023;DHT22;19390;51.460;5.710;2022-11-11T13:53:06;15.20;1.00
33023;DHT22;19390;51.460;5.710;2022-11-11T13:55:46;15.20;1.00
33023;DHT22;19390;51.460;5.710;2022-11-11T13:58:25;15.20;1.00
33023;DHT22;19390;51.460;5.710;2022-11-11T14:01:03;14.90;79.50
33023;DHT22;19390;51.460;5.710;2022-11-11T14:03:33;14.90;1.00
33023;DHT22;19390;51.460;5.710;2022-11-11T14:13:53;14.80;1.00
33023;DHT22;19390;51.460;5.710;2022-11-11T14:27:13;14.90;1.00
33023;DHT22;19390;51.460;5.710;2022-11-11T14:29:51;15.10;99.90
33023;DHT22;19390;51.460;5.710;2022-11-11T14:40:27;15.50;1.00
33023;DHT22;19390;51.460;5.710;2022-11-11T14:42:54;15.50;99.90
33023;DHT22;19390;51.460;5.710;2022-11-11T14:47:51;15.30;1.00
33023;DHT22;19390;51.460;5.710;2022-11-11T14:50:40;15.20;1.00
33023;DHT22;19390;51.460;5.710;2022-11-11T14:53:19;14.60;1.00
33023;DHT22;19390;51.460;5.710;2022-11-11T14:55:53;14.30;1.00
33023;DHT22;19390;51.460;5.710;2022-11-11T14:58:23;14.10;1.00
33023;DHT22;19390;51.460;5.710;2022-11-11T15:00:54;13.90;1.00
33023;DHT22;19390;51.460;5.710;2022-11-11T15:03:32;13.80;99.90
33023;DHT22;19390;51.460;5.710;2022-11-11T15:09:05;13.10;1.00
33023;DHT22;19390;51.460;5.710;2022-11-11T15:23:02;11.80;99.90
33023;DHT22;19390;51.460;5.710;2022-11-11T15:26:28;11.50;99.90
33023;DHT22;19390;51.460;5.710;2022-11-11T15:29:23;11.30;99.90
33023;DHT22;19390;51.460;5.710;2022-11-11T15:34:47;10.70;99.90
33023;DHT22;19390;51.460;5.710;2022-11-11T15:37:17;10.40;99.90
33023;DHT22;19390;51.460;5.710;2022-11-11T15:39:51;10.30;99.90
33023;DHT22;19390;51.460;5.710;2022-11-11T15:42:31;10.10;99.90
33023;DHT22;19390;51.460;5.710;2022-11-11T15:44:59;10.10;99.90
33023;DHT22;19390;51.460;5.710;2022-11-11T15:47:26;9.90;99.90
33023;DHT22;19390;51.460;5.710;2022-11-11T15:49:54;9.80;99.90
33023;DHT22;19390;51.460;5.710;2022-11-11T15:52:26;9.80;99.90
33023;DHT22;19390;51.460;5.710;2022-11-11T15:54:53;9.70;99.90
33023;DHT22;19390;51.460;5.710;2022-11-11T15:57:33;9.50;99.90
33023;DHT22;19390;51.460;5.710;2022-11-11T16:02:52;9.30;99.90
33023;DHT22;19390;51.460;5.710;2022-11-11T16:07:46;9.10;99.90
33023;DHT22;19390;51.460;5.710;2022-11-11T16:10:29;9.10;99.90
33023;DHT22;19390;51.460;5.710;2022-11-11T16:13:17;8.90;99.90
33023;DHT22;19390;51.460;5.710;2022-11-11T16:18:21;8.70;99.90
33023;DHT22;19390;51.460;5.710;2022-11-11T16:21:02;8.70;99.90
33023;DHT22;19390;51.460;5.710;2022-11-11T16:23:29;8.50;99.90
33023;DHT22;19390;51.460;5.710;2022-11-11T16:25:57;8.50;99.90
33023;DHT22;19390;51.460;5.710;2022-11-11T16:28:27;8.50;99.90
33023;DHT22;19390;51.460;5.710;2022-11-11T16:30:55;8.50;99.90
33023;DHT22;19390;51.460;5.710;2022-11-11T16:35:53;9.10;99.90
33023;DHT22;19390;51.460;5.710;2022-11-11T16:38:32;9.40;99.90
33023;DHT22;19390;51.460;5.710;2022-11-11T16:40:58;9.60;99.90
33023;DHT22;19390;51.460;5.710;2022-11-11T16:43:31;9.80;99.90
33023;DHT22;19390;51.460;5.710;2022-11-11T16:46:04;10.10;99.90
33023;DHT22;19390;51.460;5.710;2022-11-11T16:51:03;9.80;99.90
33023;DHT22;19390;51.460;5.710;2022-11-11T16:53:35;9.40;99.90
33023;DHT22;19390;51.460;5.710;2022-11-11T16:56:04;9.10;99.90
33023;DHT22;19390;51.460;5.710;2022-11-11T16:58:30;9.10;99.90
33023;DHT22;19390;51.460;5.710;2022-11-11T17:01:01;9.00;99.90
33023;DHT22;19390;51.460;5.710;2022-11-11T17:03:27;9.10;99.90
33023;DHT22;19390;51.460;5.710;2022-11-11T17:06:04;8.90;99.90
33023;DHT22;19390;51.460;5.710;2022-11-11T17:08:40;8.90;99.90
33023;DHT22;19390;51.460;5.710;2022-11-11T17:11:54;9.10;99.90
33023;DHT22;19390;51.460;5.710;2022-11-11T17:13:55;8.90;99.90
33023;DHT22;19390;51.460;5.710;2022-11-11T17:16:21;9.00;99.90
33023;DHT22;19390;51.460;5.710;2022-11-11T17:18:47;8.70;99.90
33023;DHT22;19390;51.460;5.710;2022-11-11T17:21:12;9.00;99.90
33023;DHT22;19390;51.460;5.710;2022-11-11T17:23:38;9.20;99.90
33023;DHT22;19390;51.460;5.710;2022-11-11T17:26:04;8.80;99.90
33023;DHT22;19390;51.460;5.710;2022-11-11T17:28:34;8.70;99.90
33023;DHT22;19390;51.460;5.710;2022-11-11T17:31:07;8.60;99.90
33023;DHT22;19390;51.460;5.710;2022-11-11T17:33:33;8.60;99.90
33023;DHT22;19390;51.460;5.710;2022-11-11T17:35:59;8.60;99.90
33023;DHT22;19390;51.460;5.710;2022-11-11T17:38:26;8.70;99.90
33023;DHT22;19390;51.460;5.710;2022-11-11T17:40:52;8.50;99.90
33023;DHT22;19390;51.460;5.710;2022-11-11T17:43:17;8.30;99.90
33023;DHT22;19390;51.460;5.710;2022-11-11T17:45:43;7.60;99.90
33023;DHT22;19390;51.460;5.710;2022-11-11T17:48:09;7.30;99.90
33023;DHT22;19390;51.460;5.710;2022-11-11T17:50:36;7.20;99.90
33023;DHT22;19390;51.460;5.710;2022-11-11T17:53:03;7.10;99.90
33023;DHT22;19390;51.460;5.710;2022-11-11T17:55:30;7.00;99.90
33023;DHT22;19390;51.460;5.710;2022-11-11T17:57:57;6.90;99.90
33023;DHT22;19390;51.460;5.710;2022-11-11T18:00:23;6.70;99.90
33023;DHT22;19390;51.460;5.710;2022-11-11T18:02:49;6.70;99.90
33023;DHT22;19390;51.460;5.710;2022-11-11T18:05:14;6.60;99.90
33023;DHT22;19390;51.460;5.710;2022-11-11T18:07:40;6.50;99.90
33023;DHT22;19390;51.460;5.710;2022-11-11T18:10:07;6.50;99.90
33023;DHT22;19390;51.460;5.710;2022-11-11T18:12:34;6.50;99.90
33023;DHT22;19390;51.460;5.710;2022-11-11T18:14:59;6.30;99.90
33023;DHT22;19390;51.460;5.710;2022-11-11T18:17:25;6.30;99.90
33023;DHT22;19390;51.460;5.710;2022-11-11T18:19:51;6.20;99.90
33023;DHT22;19390;51.460;5.710;2022-11-11T18:22:16;6.20;99.90
33023;DHT22;19390;51.460;5.710;2022-11-11T18:24:42;6.30;99.90
33023;DHT22;19390;51.460;5.710;2022-11-11T18:27:08;6.50;99.90
33023;DHT22;19390;51.460;5.710;2022-11-11T18:29:33;6.50;99.90
33023;DHT22;19390;51.460;5.710;2022-11-11T18:32:00;6.60;99.90
33023;DHT22;19390;51.460;5.710;2022-11-11T18:34:26;6.60;99.90
33023;DHT22;19390;51.460;5.710;2022-11-11T18:36:52;6.50;99.90
33023;DHT22;19390;51.460;5.710;2022-11-11T18:39:17;6.40;99.90